Time;durP1;ratioP1;P1;durP2;ratioP2;P2;SDS_P1;SDS_P2;PMS_P1;PMS_P2;Temp;Humidity;BMP_temperature;BMP_pressure;BME280_temperature;BME280_humidity;BME280_pressure;Samples;Min_cycle;Max_cycle;Signal;HPM_P1;HPM_P2
2022/07/29 00:02:29;;;;;;;7.57;4.50;;;;;;;;;;5048159;28;20045;-83
2022/07/29 00:05:15;;;;;;;8.82;4.72;;;;;;;;;;5056517;28;20048;-77
2022/07/29 00:08:00;;;;;;;9.63;5.00;;;;;;;;;;5056348;28;20048;-82
2022/07/29 00:10:46;;;;;;;8.55;5.00;;;;;;;;;;5063050;28;20037;-81
2022/07/29 00:13:32;;;;;;;6.43;5.07;;;;;;;;;;5055439;28;20045;-81
2022/07/29 00:16:17;;;;;;;7.03;4.80;;;;;;;;;;5062730;28;20044;-78
2022/07/29 00:19:03;;;;;;;6.40;5.00;;;;;;;;;;5063207;28;20045;-81
2022/07/29 00:21:49;;;;;;;8.10;4.90;;;;;;;;;;5055891;28;20049;-78
2022/07/29 00:24:34;;;;;;;8.05;5.03;;;;;;;;;;5055846;28;20048;-81
2022/07/29 00:27:20;;;;;;;7.10;5.07;;;;;;;;;;5062712;28;20037;-79
2022/07/29 00:30:07;;;;;;;7.50;4.93;;;;;;;;;;5056055;28;20041;-81
2022/07/29 00:32:51;;;;;;;8.60;5.20;;;;;;;;;;5055605;28;20417;-81
2022/07/29 00:35:46;;;;;;;6.40;5.13;;;;;;;;;;5055796;28;20041;-78
2022/07/29 00:38:31;;;;;;;;;;;;;;;;;;5062863;28;20045;-81
2022/07/29 00:41:18;;;;;;;7.43;4.90;;;;;;;;;;5041018;28;20338;-81
2022/07/29 00:44:03;;;;;;;7.00;5.65;;;;;;;;;;5055274;28;20049;-77
2022/07/29 00:46:49;;;;;;;9.98;5.25;;;;;;;;;;5056026;28;20045;-79
2022/07/29 00:49:35;;;;;;;8.90;5.15;;;;;;;;;;5055623;28;20041;-79
2022/07/29 00:52:21;;;;;;;11.00;5.50;;;;;;;;;;5055102;28;20482;-79
2022/07/29 00:55:10;;;;;;;9.30;4.93;;;;;;;;;;5062176;28;20056;-79
2022/07/29 00:57:56;;;;;;;8.60;5.63;;;;;;;;;;5040436;28;20045;-79
2022/07/29 01:00:42;;;;;;;9.52;5.45;;;;;;;;;;5055468;28;20041;-82
2022/07/29 01:03:27;;;;;;;7.55;5.22;;;;;;;;;;5062063;28;20048;-83
2022/07/29 01:06:13;;;;;;;6.60;5.60;;;;;;;;;;5061926;28;20475;-82
2022/07/29 01:08:59;;;;;;;6.43;5.75;;;;;;;;;;5055020;28;20045;-82
2022/07/29 01:11:47;;;;;;;10.90;5.80;;;;;;;;;;5033281;28;20045;-82
2022/07/29 01:14:34;;;;;;;6.97;5.65;;;;;;;;;;5055302;28;20048;-79
2022/07/29 01:17:32;;;;;;;8.93;5.53;;;;;;;;;;5055277;28;20390;-79
2022/07/29 01:20:42;;;;;;;8.05;5.50;;;;;;;;;;5056906;28;20037;-78
2022/07/29 01:23:56;;;;;;;6.95;5.20;;;;;;;;;;5074690;28;20048;-78
2022/07/29 01:26:48;;;;;;;5.90;4.85;;;;;;;;;;5055306;28;20045;-81
2022/07/29 01:29:43;;;;;;;7.95;5.10;;;;;;;;;;5061696;28;20040;-78
2022/07/29 01:32:33;;;;;;;13.20;5.50;;;;;;;;;;5054580;28;20486;-81
2022/07/29 01:35:35;;;;;;;6.38;4.95;;;;;;;;;;5054794;28;20053;-81
2022/07/29 01:38:25;;;;;;;9.38;5.00;;;;;;;;;;5061425;28;20040;-78
2022/07/29 01:41:14;;;;;;;5.82;4.97;;;;;;;;;;5054609;28;20052;-79
2022/07/29 01:44:06;;;;;;;11.27;5.80;;;;;;;;;;5054170;28;20049;-83
2022/07/29 01:46:55;;;;;;;8.30;5.18;;;;;;;;;;5054773;28;20045;-79
2022/07/29 01:49:51;;;;;;;7.10;5.20;;;;;;;;;;5061263;28;20037;-83
2022/07/29 01:53:03;;;;;;;9.18;5.40;;;;;;;;;;5053955;28;20045;-83
2022/07/29 01:55:50;;;;;;;9.27;5.22;;;;;;;;;;5054435;28;20045;-79
2022/07/29 01:58:38;;;;;;;7.65;5.57;;;;;;;;;;5060737;28;20048;-79
2022/07/29 02:01:24;;;;;;;5.85;5.20;;;;;;;;;;5054380;28;20053;-79
2022/07/29 02:04:11;;;;;;;6.28;4.95;;;;;;;;;;5054015;28;20049;-79
2022/07/29 02:07:04;;;;;;;13.73;5.28;;;;;;;;;;5053998;28;20033;-79
2022/07/29 02:09:51;;;;;;;6.85;5.22;;;;;;;;;;5060305;28;20045;-79
2022/07/29 02:12:37;;;;;;;8.57;5.53;;;;;;;;;;5060407;28;20049;-79
2022/07/29 02:15:29;;;;;;;6.55;5.18;;;;;;;;;;5054064;28;20045;-79
2022/07/29 02:18:17;;;;;;;6.30;5.13;;;;;;;;;;5053772;28;20052;-79
2022/07/29 02:21:04;;;;;;;9.30;5.43;;;;;;;;;;5053855;28;20041;-79
2022/07/29 02:23:52;;;;;;;7.45;5.60;;;;;;;;;;5053607;28;20497;-79
2022/07/29 02:26:41;;;;;;;8.07;5.47;;;;;;;;;;5053992;28;20045;-79
2022/07/29 02:29:29;;;;;;;6.72;5.20;;;;;;;;;;5053681;28;20045;-79
2022/07/29 02:32:16;;;;;;;7.97;5.40;;;;;;;;;;5053325;28;20040;-79
2022/07/29 02:35:02;;;;;;;10.52;6.53;;;;;;;;;;5059789;28;20036;-81
2022/07/29 02:40:55;;;;;;;8.77;5.95;;;;;;;;;;5030747;28;20041;-78
2022/07/29 02:43:43;;;;;;;10.63;5.95;;;;;;;;;;5053457;28;20052;-77
2022/07/29 02:46:31;;;;;;;6.80;5.20;;;;;;;;;;5060141;28;20044;-78
2022/07/29 02:49:31;;;;;;;8.50;5.60;;;;;;;;;;5038452;28;20506;-79
2022/07/29 02:52:39;;;;;;;11.73;6.10;;;;;;;;;;5053435;28;20045;-77
2022/07/29 02:55:47;;;;;;;11.52;7.50;;;;;;;;;;5060066;28;20049;-76
2022/07/29 02:58:58;;;;;;;19.40;9.88;;;;;;;;;;5060146;28;20048;-79
2022/07/29 03:01:45;;;;;;;12.35;8.98;;;;;;;;;;5053600;28;20053;-81
2022/07/29 03:04:32;;;;;;;16.42;8.93;;;;;;;;;;5045219;28;20052;-80
2022/07/29 03:07:19;;;;;;;14.82;8.35;;;;;;;;;;5053775;28;20049;-78
2022/07/29 03:10:06;;;;;;;16.23;7.93;;;;;;;;;;5053617;28;20045;-80
2022/07/29 03:12:53;;;;;;;9.20;7.50;;;;;;;;;;5054852;28;20478;-83
2022/07/29 03:15:39;;;;;;;10.63;7.60;;;;;;;;;;5053964;28;20037;-82
2022/07/29 03:18:25;;;;;;;8.90;6.80;;;;;;;;;;5060054;28;20045;-82
2022/07/29 03:21:11;;;;;;;12.85;7.07;;;;;;;;;;5053599;28;20387;-82
2022/07/29 03:23:56;;;;;;;14.18;7.57;;;;;;;;;;5060073;28;20049;-79
2022/07/29 03:26:42;;;;;;;9.18;6.82;;;;;;;;;;5053292;28;20041;-79
2022/07/29 03:29:28;;;;;;;8.13;6.55;;;;;;;;;;5053093;28;20041;-80
2022/07/29 03:32:13;;;;;;;7.63;6.32;;;;;;;;;;5052963;28;20041;-79
2022/07/29 03:34:59;;;;;;;8.48;6.90;;;;;;;;;;5053620;28;20497;-82
2022/07/29 03:37:45;;;;;;;11.10;7.15;;;;;;;;;;5063375;28;20049;-79
2022/07/29 03:40:46;;;;;;;7.88;6.75;;;;;;;;;;5060450;28;20476;-79
2022/07/29 03:43:35;;;;;;;9.35;6.40;;;;;;;;;;5057953;28;20394;-78
2022/07/29 03:46:23;;;;;;;9.70;5.85;;;;;;;;;;5045282;28;20466;-79
2022/07/29 03:49:11;;;;;;;10.88;6.50;;;;;;;;;;5056918;28;20045;-82
2022/07/29 03:51:56;;;;;;;12.32;5.95;;;;;;;;;;5056646;28;20045;-81
2022/07/29 03:54:42;;;;;;;9.50;5.90;;;;;;;;;;5062995;28;20390;-79
2022/07/29 03:57:30;;;;;;;8.48;5.90;;;;;;;;;;5056499;28;20041;-79
2022/07/29 04:00:15;;;;;;;8.98;6.03;;;;;;;;;;5063266;28;20470;-79
2022/07/29 04:03:01;;;;;;;10.98;6.47;;;;;;;;;;5056379;28;20049;-82
2022/07/29 04:06:05;;;;;;;11.70;6.68;;;;;;;;;;5056647;28;20045;-82
2022/07/29 04:08:50;;;;;;;7.30;6.00;;;;;;;;;;5056335;28;20045;-79
2022/07/29 04:11:39;;;;;;;10.40;6.00;;;;;;;;;;5056037;28;20041;-80
2022/07/29 04:14:23;;;;;;;10.40;6.13;;;;;;;;;;5055970;28;20048;-80
2022/07/29 04:17:09;;;;;;;9.90;5.70;;;;;;;;;;5056016;28;20033;-80
2022/07/29 04:19:54;;;;;;;12.13;6.38;;;;;;;;;;5041256;28;20502;-83
2022/07/29 04:22:40;;;;;;;11.15;5.90;;;;;;;;;;5056340;28;20394;-80
2022/07/29 04:25:26;;;;;;;13.07;6.60;;;;;;;;;;5062499;28;20044;-79
2022/07/29 04:28:11;;;;;;;7.63;6.00;;;;;;;;;;5062977;28;20459;-78
2022/07/29 04:30:57;;;;;;;12.57;5.90;;;;;;;;;;5055787;28;20041;-81
2022/07/29 04:33:42;;;;;;;11.00;6.30;;;;;;;;;;5062573;28;20049;-80
2022/07/29 04:36:28;;;;;;;10.48;6.35;;;;;;;;;;5062551;28;20486;-84
2022/07/29 04:39:14;;;;;;;10.57;5.80;;;;;;;;;;5033551;28;20052;-80
2022/07/29 04:42:00;;;;;;;12.52;6.25;;;;;;;;;;5055553;28;20049;-79
2022/07/29 04:44:45;;;;;;;9.40;6.10;;;;;;;;;;5055069;28;20037;-81
2022/07/29 04:47:30;;;;;;;10.35;6.40;;;;;;;;;;5055675;28;20049;-83
2022/07/29 04:50:16;;;;;;;8.73;5.95;;;;;;;;;;5055774;28;20037;-83
2022/07/29 04:53:03;;;;;;;10.52;5.93;;;;;;;;;;5055462;28;20490;-84
2022/07/29 04:55:48;;;;;;;10.45;6.00;;;;;;;;;;5055140;28;20045;-83
2022/07/29 04:58:35;;;;;;;11.18;5.85;;;;;;;;;;5063005;28;20044;-82
2022/07/29 05:01:19;;;;;;;9.25;5.95;;;;;;;;;;5055310;28;20041;-83
2022/07/29 05:04:05;;;;;;;8.73;5.53;;;;;;;;;;5055237;28;20049;-79
2022/07/29 05:06:51;;;;;;;9.40;5.72;;;;;;;;;;5055465;28;20048;-83
2022/07/29 05:09:36;;;;;;;16.02;7.03;;;;;;;;;;5055033;28;20045;-79
2022/07/29 05:12:23;;;;;;;10.00;5.93;;;;;;;;;;5054914;28;20067;-81
2022/07/29 05:15:09;;;;;;;8.25;5.95;;;;;;;;;;5054380;28;20053;-82
2022/07/29 05:17:53;;;;;;;11.43;5.50;;;;;;;;;;5054978;28;20057;-80
2022/07/29 05:20:38;;;;;;;9.60;5.35;;;;;;;;;;5055202;28;20045;-82
2022/07/29 05:23:24;;;;;;;10.65;5.55;;;;;;;;;;5054557;28;20049;-81
2022/07/29 05:26:10;;;;;;;11.65;6.90;;;;;;;;;;5061429;28;20044;-82
2022/07/29 05:28:56;;;;;;;13.43;6.47;;;;;;;;;;5054700;28;20394;-79
2022/07/29 05:31:42;;;;;;;8.13;5.70;;;;;;;;;;5055002;28;20044;-80
2022/07/29 05:34:27;;;;;;;8.23;5.57;;;;;;;;;;5060238;28;20053;-83
2022/07/29 05:37:13;;;;;;;10.38;6.22;;;;;;;;;;5054625;28;20037;-79
2022/07/29 05:39:59;;;;;;;11.40;6.57;;;;;;;;;;5061120;28;20041;-82
2022/07/29 05:42:44;;;;;;;10.32;6.00;;;;;;;;;;5054109;28;20056;-80
2022/07/29 05:45:30;;;;;;;10.32;7.40;;;;;;;;;;5060939;28;20049;-83
2022/07/29 05:48:15;;;;;;;11.13;6.90;;;;;;;;;;5060446;28;20044;-82
2022/07/29 05:51:01;;;;;;;10.85;6.10;;;;;;;;;;5054575;28;20049;-80
2022/07/29 05:53:47;;;;;;;11.20;6.25;;;;;;;;;;5057521;28;20044;-81
2022/07/29 05:56:32;;;;;;;7.00;5.97;;;;;;;;;;5067448;28;20040;-82
2022/07/29 05:59:18;;;;;;;10.52;6.13;;;;;;;;;;5060525;28;20049;-79
2022/07/29 06:02:04;;;;;;;8.60;5.60;;;;;;;;;;5053567;28;20044;-80
2022/07/29 06:04:50;;;;;;;8.82;5.57;;;;;;;;;;5053619;28;20041;-78
2022/07/29 06:07:35;;;;;;;7.18;5.00;;;;;;;;;;5060253;28;20049;-79
2022/07/29 06:10:21;;;;;;;9.48;5.40;;;;;;;;;;5051214;28;20057;-82
2022/07/29 06:13:15;;;;;;;11.48;5.88;;;;;;;;;;5054443;28;20040;-83
2022/07/29 06:16:00;;;;;;;7.95;5.75;;;;;;;;;;5041132;28;20037;-78
2022/07/29 06:18:46;;;;;;;10.63;5.90;;;;;;;;;;5060462;28;20041;-83
2022/07/29 06:21:31;;;;;;;8.15;5.35;;;;;;;;;;5060761;28;20044;-82
2022/07/29 06:24:17;;;;;;;9.18;5.38;;;;;;;;;;5053012;28;20041;-81
2022/07/29 06:27:03;;;;;;;7.05;5.07;;;;;;;;;;5053695;28;20048;-80
2022/07/29 06:29:48;;;;;;;11.20;5.25;;;;;;;;;;5059933;28;20045;-81
2022/07/29 06:32:35;;;;;;;9.25;5.60;;;;;;;;;;5059417;28;20490;-81
2022/07/29 06:35:21;;;;;;;9.50;5.20;;;;;;;;;;5053511;28;20037;-80
2022/07/29 06:38:06;;;;;;;7.78;5.53;;;;;;;;;;5059457;28;20045;-83
2022/07/29 06:41:01;;;;;;;14.90;5.60;;;;;;;;;;5053341;28;20053;-82
2022/07/29 06:43:46;;;;;;;7.97;5.30;;;;;;;;;;5053770;28;20057;-81
2022/07/29 06:46:32;;;;;;;9.68;5.78;;;;;;;;;;5052876;28;20048;-82
2022/07/29 06:49:17;;;;;;;12.63;6.07;;;;;;;;;;5053674;28;20433;-83
2022/07/29 06:52:03;;;;;;;9.07;5.35;;;;;;;;;;5052912;28;20037;-82
2022/07/29 06:54:48;;;;;;;10.45;5.57;;;;;;;;;;5053335;28;20045;-80
2022/07/29 06:57:34;;;;;;;7.53;5.55;;;;;;;;;;5053199;28;20049;-83
2022/07/29 07:00:20;;;;;;;9.98;6.28;;;;;;;;;;5052990;28;20057;-79
2022/07/29 07:03:05;;;;;;;14.80;7.18;;;;;;;;;;5053434;28;20061;-77
2022/07/29 07:05:53;;;;;;;10.00;6.20;;;;;;;;;;5059698;28;20478;-78
2022/07/29 07:08:38;;;;;;;8.88;6.57;;;;;;;;;;5059689;28;20064;-77
2022/07/29 07:11:24;;;;;;;6.78;4.70;;;;;;;;;;5060007;28;20405;-78
2022/07/29 07:14:09;;;;;;;8.55;5.60;;;;;;;;;;5059013;28;20041;-77
2022/07/29 07:16:55;;;;;;;10.73;5.80;;;;;;;;;;5059777;28;20044;-78
2022/07/29 07:19:41;;;;;;;8.60;6.18;;;;;;;;;;5059670;28;20048;-77
2022/07/29 07:22:26;;;;;;;10.07;6.43;;;;;;;;;;5060318;28;20478;-77
2022/07/29 07:25:12;;;;;;;10.20;6.28;;;;;;;;;;5056868;28;20041;-76
2022/07/29 07:27:57;;;;;;;9.23;5.85;;;;;;;;;;5056344;28;20971;-77
2022/07/29 07:30:45;;;;;;;13.35;6.30;;;;;;;;;;5056917;28;20398;-77
2022/07/29 07:33:29;;;;;;;11.88;6.90;;;;;;;;;;5063262;28;20477;-77
2022/07/29 07:36:15;;;;;;;12.65;7.15;;;;;;;;;;5055986;28;20040;-77
2022/07/29 07:39:02;;;;;;;9.43;6.65;;;;;;;;;;5056658;28;20398;-76
2022/07/29 07:41:47;;;;;;;11.45;6.32;;;;;;;;;;5056281;28;20053;-76
2022/07/29 07:44:33;;;;;;;12.32;6.57;;;;;;;;;;5059241;28;20045;-78
2022/07/29 07:47:23;;;;;;;14.38;6.93;;;;;;;;;;5055883;28;20394;-77
2022/07/29 07:50:10;;;;;;;10.43;6.72;;;;;;;;;;5055779;28;20048;-77
2022/07/29 07:52:59;;;;;;;12.50;7.20;;;;;;;;;;5048007;28;20044;-78
2022/07/29 07:55:45;;;;;;;9.13;6.47;;;;;;;;;;5056625;28;20053;-78
2022/07/29 07:58:30;;;;;;;8.23;6.05;;;;;;;;;;5063189;28;20398;-78
2022/07/29 08:01:18;;;;;;;6.82;5.45;;;;;;;;;;5055957;28;20049;-77
2022/07/29 08:04:04;;;;;;;7.75;6.00;;;;;;;;;;5056009;28;20378;-77
2022/07/29 08:06:50;;;;;;;8.35;5.80;;;;;;;;;;5056572;28;20045;-77
2022/07/29 08:09:36;;;;;;;10.60;5.90;;;;;;;;;;5054619;28;20045;-77
2022/07/29 08:12:21;;;;;;;9.18;5.60;;;;;;;;;;5063074;28;20049;-78
2022/07/29 08:15:07;;;;;;;7.38;5.68;;;;;;;;;;5057147;28;20037;-78
2022/07/29 08:17:52;;;;;;;8.63;5.78;;;;;;;;;;5055748;28;20037;-79
2022/07/29 08:20:38;;;;;;;16.05;11.73;;;;;;;;;;5055291;28;20049;-78
2022/07/29 08:23:26;;;;;;;7.40;5.50;;;;;;;;;;5061145;28;20041;-78
2022/07/29 08:26:13;;;;;;;8.32;5.40;;;;;;;;;;5062233;28;20040;-77
2022/07/29 08:28:59;;;;;;;6.55;5.60;;;;;;;;;;5055689;28;20390;-76
2022/07/29 08:31:45;;;;;;;7.78;5.88;;;;;;;;;;5055818;28;20041;-78
2022/07/29 08:34:31;;;;;;;12.85;5.93;;;;;;;;;;5055302;28;20498;-77
2022/07/29 08:37:17;;;;;;;8.57;5.50;;;;;;;;;;5054687;28;20052;-77
2022/07/29 08:40:03;;;;;;;11.60;5.75;;;;;;;;;;5061994;28;20044;-78
2022/07/29 08:42:49;;;;;;;8.07;5.53;;;;;;;;;;5062778;28;20049;-77
2022/07/29 08:45:43;;;;;;;11.05;5.50;;;;;;;;;;5063327;28;20041;-76
2022/07/29 08:48:29;;;;;;;8.70;4.95;;;;;;;;;;5055833;28;20048;-77
2022/07/29 08:51:17;;;;;;;6.90;5.18;;;;;;;;;;5062321;28;20048;-77
2022/07/29 08:54:03;;;;;;;6.05;4.85;;;;;;;;;;5055139;28;20049;-77
2022/07/29 08:56:50;;;;;;;10.52;5.32;;;;;;;;;;5054594;28;20037;-78
2022/07/29 08:59:37;;;;;;;6.78;5.13;;;;;;;;;;5054484;28;20406;-77
2022/07/29 09:02:26;;;;;;;8.18;5.20;;;;;;;;;;5055664;28;20053;-78
2022/07/29 09:05:12;;;;;;;7.15;4.97;;;;;;;;;;5061436;28;20049;-75
2022/07/29 09:07:59;;;;;;;7.72;4.88;;;;;;;;;;5054574;28;20053;-78
2022/07/29 09:10:44;;;;;;;5.65;4.78;;;;;;;;;;5062535;28;20044;-77
2022/07/29 09:13:30;;;;;;;8.75;4.65;;;;;;;;;;5056934;28;20049;-79
2022/07/29 09:16:15;;;;;;;12.65;5.38;;;;;;;;;;5057810;28;20049;-75
2022/07/29 09:19:01;;;;;;;11.02;5.20;;;;;;;;;;5062394;28;20049;-77
2022/07/29 09:21:58;;;;;;;7.03;5.20;;;;;;;;;;5055211;28;20044;-76
2022/07/29 09:24:44;;;;;;;6.63;5.00;;;;;;;;;;5063463;28;20044;-77
2022/07/29 09:27:29;;;;;;;6.30;5.00;;;;;;;;;;5056279;28;20045;-77
2022/07/29 09:30:15;;;;;;;7.20;5.47;;;;;;;;;;5056440;28;20044;-77
2022/07/29 09:33:02;;;;;;;8.18;5.25;;;;;;;;;;5054708;28;20045;-76
2022/07/29 09:36:04;;;;;;;10.55;5.05;;;;;;;;;;5061122;28;20053;-77
2022/07/29 09:38:59;;;;;;;8.30;5.68;;;;;;;;;;5061336;28;20041;-77
2022/07/29 09:41:49;;;;;;;9.30;5.60;;;;;;;;;;5061092;28;20454;-77
2022/07/29 09:44:49;;;;;;;6.45;5.45;;;;;;;;;;5053154;28;20410;-77
2022/07/29 09:47:46;;;;;;;9.70;5.18;;;;;;;;;;5054273;28;20063;-77
2022/07/29 09:50:38;;;;;;;8.23;5.30;;;;;;;;;;5060818;28;20052;-77
2022/07/29 09:53:44;;;;;;;10.32;5.47;;;;;;;;;;5061075;28;20037;-77
2022/07/29 09:56:42;;;;;;;6.75;5.15;;;;;;;;;;5053960;28;20048;-77
2022/07/29 09:59:28;;;;;;;6.50;4.97;;;;;;;;;;5053343;28;20046;-78
2022/07/29 10:02:14;;;;;;;7.72;5.25;;;;;;;;;;5053803;28;20041;-77
2022/07/29 10:05:00;;;;;;;6.95;4.75;;;;;;;;;;5053622;28;20045;-76
2022/07/29 10:07:57;;;;;;;7.55;5.68;;;;;;;;;;5059934;28;20044;-76
2022/07/29 10:10:43;;;;;;;6.78;4.88;;;;;;;;;;5060249;28;20479;-75
2022/07/29 10:13:29;;;;;;;7.63;4.88;;;;;;;;;;5055604;28;20049;-76
2022/07/29 10:16:16;;;;;;;7.07;5.25;;;;;;;;;;5053842;28;20053;-77
2022/07/29 10:19:02;;;;;;;7.30;5.30;;;;;;;;;;5045196;28;20390;-76
2022/07/29 10:21:48;;;;;;;8.82;5.60;;;;;;;;;;5060459;28;20044;-78
2022/07/29 10:24:35;;;;;;;7.57;5.25;;;;;;;;;;5061291;28;20041;-77
2022/07/29 10:27:19;;;;;;;13.18;4.93;;;;;;;;;;5053218;28;20041;-77
2022/07/29 10:30:06;;;;;;;9.05;5.40;;;;;;;;;;5054048;28;20482;-77
2022/07/29 10:33:22;;;;;;;7.65;5.35;;;;;;;;;;5057168;28;20045;-77
2022/07/29 10:36:33;;;;;;;8.82;4.85;;;;;;;;;;5061010;28;20053;-76
2022/07/29 10:39:41;;;;;;;6.55;5.25;;;;;;;;;;5053039;28;20044;-77
2022/07/29 10:42:29;;;;;;;5.63;5.03;;;;;;;;;;5059855;28;20040;-77
2022/07/29 10:45:17;;;;;;;7.43;5.43;;;;;;;;;;5054489;28;20045;-77
2022/07/29 10:48:06;;;;;;;7.00;5.53;;;;;;;;;;5053242;28;20045;-77
2022/07/29 10:50:58;;;;;;;10.15;5.28;;;;;;;;;;5059935;28;20044;-76
2022/07/29 10:53:52;;;;;;;6.80;5.40;;;;;;;;;;5059990;28;20041;-77
2022/07/29 10:56:40;;;;;;;6.72;5.03;;;;;;;;;;5054651;28;20041;-77
2022/07/29 10:59:26;;;;;;;7.75;5.10;;;;;;;;;;5063962;28;20045;-77
2022/07/29 11:02:36;;;;;;;6.18;4.85;;;;;;;;;;5064245;28;20036;-76
2022/07/29 11:05:20;;;;;;;6.72;5.28;;;;;;;;;;5063388;28;20045;-76
2022/07/29 11:08:12;;;;;;;9.98;5.35;;;;;;;;;;5063385;28;20049;-76
2022/07/29 11:11:20;;;;;;;5.50;5.00;;;;;;;;;;5057067;28;20045;-78
2022/07/29 11:14:06;;;;;;;5.82;4.88;;;;;;;;;;5056565;28;20490;-77
2022/07/29 11:17:04;;;;;;;7.13;5.20;;;;;;;;;;5057172;28;20385;-77
2022/07/29 11:19:50;;;;;;;6.55;5.32;;;;;;;;;;5056986;28;20049;-76
2022/07/29 11:22:37;;;;;;;7.68;4.88;;;;;;;;;;5056831;28;20049;-76
2022/07/29 11:25:22;;;;;;;10.32;5.65;;;;;;;;;;5063790;28;20045;-77
2022/07/29 11:28:16;;;;;;;7.88;5.63;;;;;;;;;;5056707;28;20389;-77
2022/07/29 11:31:03;;;;;;;7.43;5.38;;;;;;;;;;5063598;28;20036;-76
2022/07/29 11:33:48;;;;;;;8.32;5.30;;;;;;;;;;5063162;28;20514;-77
2022/07/29 11:36:34;;;;;;;7.75;5.28;;;;;;;;;;5056267;28;20045;-76
2022/07/29 11:39:26;;;;;;;6.45;5.07;;;;;;;;;;5056275;28;20041;-77
2022/07/29 11:42:20;;;;;;;14.27;5.63;;;;;;;;;;5063458;28;20390;-77
2022/07/29 11:45:28;;;;;;;11.43;5.60;;;;;;;;;;5056197;28;20406;-76
2022/07/29 11:48:18;;;;;;;5.55;4.97;;;;;;;;;;5056558;28;20049;-76
2022/07/29 11:51:10;;;;;;;8.05;5.40;;;;;;;;;;5056264;28;20041;-76
2022/07/29 11:53:55;;;;;;;7.82;5.22;;;;;;;;;;5056480;28;20052;-78
2022/07/29 11:56:43;;;;;;;6.80;5.32;;;;;;;;;;5056764;28;20037;-76
2022/07/29 11:59:29;;;;;;;6.07;5.47;;;;;;;;;;5062966;28;20041;-76
2022/07/29 12:02:15;;;;;;;7.70;5.50;;;;;;;;;;5062444;28;20049;-76
2022/07/29 12:05:01;;;;;;;10.63;5.25;;;;;;;;;;5062790;28;20041;-76
2022/07/29 12:07:48;;;;;;;7.40;5.25;;;;;;;;;;5055341;28;20045;-77
2022/07/29 12:10:33;;;;;;;9.52;5.40;;;;;;;;;;5056077;28;20518;-76
2022/07/29 12:13:20;;;;;;;8.10;5.68;;;;;;;;;;5062294;28;20045;-77
2022/07/29 12:16:06;;;;;;;7.28;5.50;;;;;;;;;;5062380;28;20049;-76
2022/07/29 12:19:02;;;;;;;6.95;4.95;;;;;;;;;;5056001;28;20041;-77
2022/07/29 12:21:51;;;;;;;6.47;5.28;;;;;;;;;;5056271;28;20045;-76
2022/07/29 12:24:44;;;;;;;6.18;4.90;;;;;;;;;;5055951;28;20053;-76
2022/07/29 12:27:29;;;;;;;7.50;5.28;;;;;;;;;;5055809;28;20049;-76
2022/07/29 12:30:16;;;;;;;6.45;5.28;;;;;;;;;;5062497;28;20045;-76
2022/07/29 12:33:01;;;;;;;8.13;5.95;;;;;;;;;;5055467;28;20474;-76
2022/07/29 12:35:53;;;;;;;8.65;5.75;;;;;;;;;;5055371;28;20061;-76
2022/07/29 12:38:40;;;;;;;7.60;6.22;;;;;;;;;;5055404;28;20470;-76
2022/07/29 12:41:28;;;;;;;6.82;5.25;;;;;;;;;;5055855;28;20041;-75
2022/07/29 12:44:14;;;;;;;6.50;5.20;;;;;;;;;;5054872;28;20045;-76
2022/07/29 12:47:03;;;;;;;6.22;5.43;;;;;;;;;;5055355;28;20390;-77
2022/07/29 12:49:49;;;;;;;9.25;5.75;;;;;;;;;;5055134;28;20037;-78
2022/07/29 12:52:35;;;;;;;7.65;5.80;;;;;;;;;;5043978;28;20067;-79
2022/07/29 12:55:39;;;;;;;9.27;5.78;;;;;;;;;;5057117;28;20049;-76
2022/07/29 12:58:30;;;;;;;7.28;5.38;;;;;;;;;;5055009;28;20052;-78
2022/07/29 13:01:17;;;;;;;8.00;5.55;;;;;;;;;;5055236;28;20037;-76
2022/07/29 13:04:04;;;;;;;7.32;5.38;;;;;;;;;;5055348;28;20041;-76
2022/07/29 13:07:06;;;;;;;6.80;5.47;;;;;;;;;;5061756;28;20040;-77
2022/07/29 13:09:53;;;;;;;6.65;5.57;;;;;;;;;;5054545;28;20048;-76
2022/07/29 13:12:39;;;;;;;7.32;5.53;;;;;;;;;;5061345;28;20045;-77
2022/07/29 13:15:24;;;;;;;6.63;5.75;;;;;;;;;;5054316;28;20514;-76
2022/07/29 13:18:30;;;;;;;8.32;5.50;;;;;;;;;;5061851;28;20049;-75
2022/07/29 13:21:15;;;;;;;16.67;6.18;;;;;;;;;;5054943;28;20045;-76
2022/07/29 13:24:01;;;;;;;6.70;5.57;;;;;;;;;;5061398;28;20037;-76
2022/07/29 13:26:47;;;;;;;7.35;5.65;;;;;;;;;;5055355;28;20045;-77
2022/07/29 13:29:32;;;;;;;9.88;5.63;;;;;;;;;;5054044;28;20421;-79
2022/07/29 13:32:21;;;;;;;10.40;5.78;;;;;;;;;;5054397;28;20045;-79
2022/07/29 13:35:08;;;;;;;7.15;5.53;;;;;;;;;;5053736;28;20049;-79
2022/07/29 13:37:53;;;;;;;7.80;5.88;;;;;;;;;;5054321;28;20045;-79
2022/07/29 13:40:38;;;;;;;6.38;5.32;;;;;;;;;;5054705;28;20053;-77
2022/07/29 13:43:24;;;;;;;8.63;5.90;;;;;;;;;;5060154;28;20049;-78
2022/07/29 13:46:09;;;;;;;8.27;5.07;;;;;;;;;;5060755;28;20037;-77
2022/07/29 13:48:55;;;;;;;7.30;5.65;;;;;;;;;;5054083;28;20049;-76
2022/07/29 13:51:41;;;;;;;7.75;5.47;;;;;;;;;;5060994;28;20041;-76
2022/07/29 13:54:26;;;;;;;7.95;5.40;;;;;;;;;;5053928;28;20049;-77
2022/07/29 13:57:13;;;;;;;11.98;5.20;;;;;;;;;;5060744;28;20049;-77
2022/07/29 13:59:58;;;;;;;6.60;5.10;;;;;;;;;;5060979;28;20041;-78
2022/07/29 14:02:43;;;;;;;6.20;5.57;;;;;;;;;;5055102;28;20037;-78
2022/07/29 14:05:29;;;;;;;7.30;5.70;;;;;;;;;;5061860;28;20041;-77
2022/07/29 14:08:14;;;;;;;8.88;5.68;;;;;;;;;;5060636;28;20045;-79
2022/07/29 14:11:00;;;;;;;9.07;5.47;;;;;;;;;;5053423;28;20037;-77
2022/07/29 14:13:45;;;;;;;8.60;5.38;;;;;;;;;;5060363;28;20044;-78
2022/07/29 14:16:31;;;;;;;8.85;5.43;;;;;;;;;;5054199;28;20041;-78
2022/07/29 14:19:17;;;;;;;7.40;5.18;;;;;;;;;;5053266;28;20037;-79
2022/07/29 14:22:06;;;;;;;6.85;4.95;;;;;;;;;;5053886;28;20049;-78
2022/07/29 14:24:52;;;;;;;6.68;5.35;;;;;;;;;;5060648;28;20045;-78
2022/07/29 14:27:37;;;;;;;6.45;5.32;;;;;;;;;;5053709;28;20049;-77
2022/07/29 14:30:23;;;;;;;6.60;5.90;;;;;;;;;;5053590;28;20383;-77
2022/07/29 14:33:08;;;;;;;7.70;5.30;;;;;;;;;;5037755;28;20486;-76
2022/07/29 14:35:53;;;;;;;7.10;6.30;;;;;;;;;;5053109;28;20045;-77
2022/07/29 14:38:40;;;;;;;5.63;4.90;;;;;;;;;;5061751;28;20049;-76
2022/07/29 14:41:27;;;;;;;6.15;5.28;;;;;;;;;;5053386;28;20049;-77
2022/07/29 14:44:13;;;;;;;8.82;5.20;;;;;;;;;;5052959;28;20406;-76
2022/07/29 14:47:00;;;;;;;5.68;5.00;;;;;;;;;;5053109;28;20045;-76
2022/07/29 14:49:45;;;;;;;10.80;5.80;;;;;;;;;;5053444;28;20041;-76
2022/07/29 14:52:31;;;;;;;6.82;5.50;;;;;;;;;;5053255;28;20041;-77
2022/07/29 14:55:16;;;;;;;8.55;5.15;;;;;;;;;;5053222;28;20049;-76
2022/07/29 14:58:02;;;;;;;9.05;4.82;;;;;;;;;;5060058;28;20041;-77
2022/07/29 15:00:48;;;;;;;6.65;5.00;;;;;;;;;;5060011;28;20045;-76
2022/07/29 15:03:33;;;;;;;6.55;5.40;;;;;;;;;;5053680;28;20045;-77
2022/07/29 15:06:19;;;;;;;5.75;5.10;;;;;;;;;;5060310;28;20049;-77
2022/07/29 15:09:04;;;;;;;5.72;4.82;;;;;;;;;;5053176;28;20045;-76
2022/07/29 15:11:50;;;;;;;8.07;4.80;;;;;;;;;;5054710;28;20048;-78
2022/07/29 15:14:36;;;;;;;7.72;4.97;;;;;;;;;;5064708;28;20045;-78
2022/07/29 15:17:21;;;;;;;6.18;4.93;;;;;;;;;;5053757;28;20045;-75
2022/07/29 15:20:07;;;;;;;6.20;5.25;;;;;;;;;;5052966;28;20490;-77
2022/07/29 15:22:55;;;;;;;8.82;5.45;;;;;;;;;;5053165;28;20053;-77
2022/07/29 15:25:39;;;;;;;7.15;4.80;;;;;;;;;;5037597;28;20045;-76
2022/07/29 15:28:25;;;;;;;6.20;4.85;;;;;;;;;;5054090;28;20052;-78
2022/07/29 15:31:11;;;;;;;7.57;5.20;;;;;;;;;;5052927;28;20053;-77
2022/07/29 15:33:56;;;;;;;6.53;5.18;;;;;;;;;;5059763;28;20045;-77
2022/07/29 15:36:42;;;;;;;6.53;5.28;;;;;;;;;;5059861;28;20041;-77
2022/07/29 15:39:27;;;;;;;6.93;5.20;;;;;;;;;;5059861;28;20045;-79
2022/07/29 15:42:13;;;;;;;7.93;5.60;;;;;;;;;;5052308;28;20045;-77
2022/07/29 15:45:02;;;;;;;5.90;5.30;;;;;;;;;;5058130;28;20045;-77
2022/07/29 15:47:48;;;;;;;8.73;5.60;;;;;;;;;;5061994;28;20037;-77
2022/07/29 15:50:33;;;;;;;7.18;5.60;;;;;;;;;;5055789;28;20382;-78
2022/07/29 15:53:18;;;;;;;6.88;5.05;;;;;;;;;;5057082;28;20049;-76
2022/07/29 15:56:04;;;;;;;8.25;5.38;;;;;;;;;;5055823;28;20045;-76
2022/07/29 15:58:50;;;;;;;7.55;5.20;;;;;;;;;;5056396;28;20053;-78
2022/07/29 16:01:35;;;;;;;9.45;5.47;;;;;;;;;;5056010;28;20053;-77
2022/07/29 16:04:22;;;;;;;6.80;5.10;;;;;;;;;;5060971;28;20048;-77
2022/07/29 16:07:07;;;;;;;7.30;5.35;;;;;;;;;;5055377;28;20060;-76
2022/07/29 16:09:53;;;;;;;7.38;5.57;;;;;;;;;;5055982;28;20045;-76
2022/07/29 16:12:38;;;;;;;8.93;5.63;;;;;;;;;;5062718;28;20048;-77
2022/07/29 16:15:24;;;;;;;8.43;5.45;;;;;;;;;;5055436;28;20041;-77
2022/07/29 16:18:10;;;;;;;6.85;5.32;;;;;;;;;;5055997;28;20048;-77
2022/07/29 16:20:55;;;;;;;6.22;5.10;;;;;;;;;;5057822;28;20052;-78
2022/07/29 16:23:41;;;;;;;8.77;5.70;;;;;;;;;;5064164;28;20044;-77
2022/07/29 16:26:27;;;;;;;10.23;5.50;;;;;;;;;;5061827;28;20053;-77
2022/07/29 16:29:13;;;;;;;7.57;5.10;;;;;;;;;;5055949;28;20387;-76
2022/07/29 16:32:01;;;;;;;7.82;5.30;;;;;;;;;;5041291;28;20037;-77
2022/07/29 16:34:46;;;;;;;6.07;4.97;;;;;;;;;;5061904;28;20045;-77
2022/07/29 16:37:35;;;;;;;6.93;5.05;;;;;;;;;;5061258;28;20045;-77
2022/07/29 16:40:20;;;;;;;7.40;5.20;;;;;;;;;;5055380;28;20090;-78
2022/07/29 16:43:06;;;;;;;26.98;5.88;;;;;;;;;;5055958;28;20049;-77
2022/07/29 16:45:52;;;;;;;8.30;5.10;;;;;;;;;;5055441;28;20071;-78
2022/07/29 16:48:37;;;;;;;6.90;4.82;;;;;;;;;;5062343;28;20394;-78